Etusivu
METAR-TAF:

METAR-TAF

Lentoasemat :

Chattanooga, Tennessee, Yhdysvallat

Leveyspiiri: 35-02-00N, Pituuspiiri: 085-12-00W, korkeus merenpinnasta: 207 m

Tämänhetkinen sää

Tämä raportti tehtiin 22 minuuttia sitten, kello 16.53 UTC
tyyntä
Lämpötila 8°C
Kosteus 42%
Ilmanpaine 1032 hPa
Näkyvyys: 16.1 km
Hajanaisia pilviä 25000 ft:n korkeudessa

METAR: KCHA 221653Z 00000KT 10SM SCT250 08/M04 A3048 RMK AO2 SLP327 T00781044 $

Aika: 12:15 (17:15 UTC)

Sääennuste

Tämä raportti tehtiin 5 tuntia ja 55 minuuttia sitten, kello 11.20 UTC
Ennuste voimassa 22. päivästä klo 12 UTC - 23. päivään klo 12 UTC
Tuuli kn pohjoisesta
Näkyvyys: 10 km
selkeää
From 22. päivästä klo 1600 UTC
Tuuli 3 kn lounaasta
Näkyvyys: 10 km
selkeää

TAF: KCHA 221120Z 2212/2312 00000KT P6SM SKC FM221600 23003KT P6SM SKC

Säähavainnot ja -ennusteet yli 4000 lentoasemalta (METAR- ja TAF-raportit).

Käytössä olevat sääasemat on merkitty karttaan keltaisilla ja punaisilla pisteillä.

Aseta hiiri pisteen päälle nähdäksesi sääaseman nimen.

Klikkaa sitten nähdäksesi säähavainnot ja -ennusteet.

Kartan vaihtaminen: klikkaa mustalla rastilla varustettuja vihreitä pisteitä, niin voit zoomata sisään; viivalla varustettua vihreää pistettä, niin voit zoomata ulos tai vihreitä nuolia, niin pääset viereisille kartoille.


METAR-TAF: